sensor_id;sensor_type;location;lat;lon;timestamp;temperature;humidity
28175;SHT30;59417;44.788;10.334;2022-07-04T00:00:16;29.38;51.89
28175;SHT30;59417;44.788;10.334;2022-07-04T00:02:43;29.42;51.89
28175;SHT30;59417;44.788;10.334;2022-07-04T00:05:10;29.45;51.77
28175;SHT30;59417;44.788;10.334;2022-07-04T00:07:44;29.43;51.80
28175;SHT30;59417;44.788;10.334;2022-07-04T00:10:12;29.39;52.38
28175;SHT30;59417;44.788;10.334;2022-07-04T00:12:38;29.32;51.87
28175;SHT30;59417;44.788;10.334;2022-07-04T00:15:05;29.22;52.23
28175;SHT30;59417;44.788;10.334;2022-07-04T00:17:31;29.23;51.66
28175;SHT30;59417;44.788;10.334;2022-07-04T00:19:57;29.09;53.55
28175;SHT30;59417;44.788;10.334;2022-07-04T00:22:23;28.95;54.82
28175;SHT30;59417;44.788;10.334;2022-07-04T00:24:49;28.89;53.57
28175;SHT30;59417;44.788;10.334;2022-07-04T00:27:18;28.96;52.96
28175;SHT30;59417;44.788;10.334;2022-07-04T00:29:44;29.05;52.76
28175;SHT30;59417;44.788;10.334;2022-07-04T00:32:09;29.03;52.41
28175;SHT30;59417;44.788;10.334;2022-07-04T00:34:35;28.94;53.74
28175;SHT30;59417;44.788;10.334;2022-07-04T00:37:01;28.89;53.10
28175;SHT30;59417;44.788;10.334;2022-07-04T00:39:27;28.72;53.55
28175;SHT30;59417;44.788;10.334;2022-07-04T00:41:53;28.58;54.14
28175;SHT30;59417;44.788;10.334;2022-07-04T00:44:19;28.47;54.21
28175;SHT30;59417;44.788;10.334;2022-07-04T00:46:46;28.55;53.69
28175;SHT30;59417;44.788;10.334;2022-07-04T00:49:14;28.63;53.51
28175;SHT30;59417;44.788;10.334;2022-07-04T00:51:41;28.64;54.49
28175;SHT30;59417;44.788;10.334;2022-07-04T00:54:09;28.45;54.59
28175;SHT30;59417;44.788;10.334;2022-07-04T00:56:41;28.48;54.84
28175;SHT30;59417;44.788;10.334;2022-07-04T00:59:07;28.55;54.25
28175;SHT30;59417;44.788;10.334;2022-07-04T01:01:34;28.57;54.66
28175;SHT30;59417;44.788;10.334;2022-07-04T01:04:02;28.57;54.70
28175;SHT30;59417;44.788;10.334;2022-07-04T01:06:28;28.60;53.81
28175;SHT30;59417;44.788;10.334;2022-07-04T01:08:54;28.61;54.20
28175;SHT30;59417;44.788;10.334;2022-07-04T01:11:20;28.61;53.93
28175;SHT30;59417;44.788;10.334;2022-07-04T01:13:46;28.58;54.78
28175;SHT30;59417;44.788;10.334;2022-07-04T01:16:12;28.47;55.29
28175;SHT30;59417;44.788;10.334;2022-07-04T01:18:38;28.26;55.88
28175;SHT30;59417;44.788;10.334;2022-07-04T01:21:04;28.03;55.87
28175;SHT30;59417;44.788;10.334;2022-07-04T01:23:30;27.85;55.67
28175;SHT30;59417;44.788;10.334;2022-07-04T01:25:57;27.82;55.40
28175;SHT30;59417;44.788;10.334;2022-07-04T01:28:24;27.85;55.34
28175;SHT30;59417;44.788;10.334;2022-07-04T01:30:50;27.97;55.60
28175;SHT30;59417;44.788;10.334;2022-07-04T01:33:17;27.94;52.01
28175;SHT30;59417;44.788;10.334;2022-07-04T01:35:45;27.90;52.77
28175;SHT30;59417;44.788;10.334;2022-07-04T01:38:11;27.97;50.58
28175;SHT30;59417;44.788;10.334;2022-07-04T01:40:37;28.02;49.72
28175;SHT30;59417;44.788;10.334;2022-07-04T01:43:03;27.99;49.79
28175;SHT30;59417;44.788;10.334;2022-07-04T01:45:29;27.82;49.74
28175;SHT30;59417;44.788;10.334;2022-07-04T01:47:54;27.79;49.10
28175;SHT30;59417;44.788;10.334;2022-07-04T01:50:20;27.67;48.93
28175;SHT30;59417;44.788;10.334;2022-07-04T01:52:46;27.65;48.79
28175;SHT30;59417;44.788;10.334;2022-07-04T01:55:12;27.61;50.06
28175;SHT30;59417;44.788;10.334;2022-07-04T01:57:38;27.58;48.72
28175;SHT30;59417;44.788;10.334;2022-07-04T02:00:06;27.56;48.82
28175;SHT30;59417;44.788;10.334;2022-07-04T02:02:50;27.58;48.60
28175;SHT30;59417;44.788;10.334;2022-07-04T02:05:16;27.59;48.82
28175;SHT30;59417;44.788;10.334;2022-07-04T02:07:42;27.66;48.69
28175;SHT30;59417;44.788;10.334;2022-07-04T02:10:08;27.72;49.21
28175;SHT30;59417;44.788;10.334;2022-07-04T02:12:34;27.73;49.48
28175;SHT30;59417;44.788;10.334;2022-07-04T02:15:18;27.76;49.42
28175;SHT30;59417;44.788;10.334;2022-07-04T02:17:43;27.83;49.70
28175;SHT30;59417;44.788;10.334;2022-07-04T02:20:09;27.82;49.18
28175;SHT30;59417;44.788;10.334;2022-07-04T02:22:35;27.83;49.57
28175;SHT30;59417;44.788;10.334;2022-07-04T02:25:01;27.86;50.71
28175;SHT30;59417;44.788;10.334;2022-07-04T02:27:27;27.63;51.78
28175;SHT30;59417;44.788;10.334;2022-07-04T02:29:52;27.48;51.26
28175;SHT30;59417;44.788;10.334;2022-07-04T02:32:18;27.44;49.95
28175;SHT30;59417;44.788;10.334;2022-07-04T02:34:44;27.48;49.78
28175;SHT30;59417;44.788;10.334;2022-07-04T02:37:09;27.48;50.10
28175;SHT30;59417;44.788;10.334;2022-07-04T02:39:35;27.52;51.62
28175;SHT30;59417;44.788;10.334;2022-07-04T02:42:01;27.55;51.66
28175;SHT30;59417;44.788;10.334;2022-07-04T02:44:27;27.58;51.21
28175;SHT30;59417;44.788;10.334;2022-07-04T02:46:53;27.58;51.03
28175;SHT30;59417;44.788;10.334;2022-07-04T02:49:19;27.62;50.73
28175;SHT30;59417;44.788;10.334;2022-07-04T02:51:45;27.66;50.38
28175;SHT30;59417;44.788;10.334;2022-07-04T02:54:10;27.65;50.80
28175;SHT30;59417;44.788;10.334;2022-07-04T02:56:36;27.56;50.98
28175;SHT30;59417;44.788;10.334;2022-07-04T02:59:02;27.58;50.77
28175;SHT30;59417;44.788;10.334;2022-07-04T03:01:27;27.49;50.75
28175;SHT30;59417;44.788;10.334;2022-07-04T03:03:53;27.53;51.29
28175;SHT30;59417;44.788;10.334;2022-07-04T03:06:19;27.52;51.21
28175;SHT30;59417;44.788;10.334;2022-07-04T03:08:44;27.39;51.81
28175;SHT30;59417;44.788;10.334;2022-07-04T03:11:10;27.24;51.76
28175;SHT30;59417;44.788;10.334;2022-07-04T03:13:37;27.22;51.64
28175;SHT30;59417;44.788;10.334;2022-07-04T03:16:04;27.19;51.87
28175;SHT30;59417;44.788;10.334;2022-07-04T03:18:30;27.24;51.51
28175;SHT30;59417;44.788;10.334;2022-07-04T03:20:55;27.18;50.83
28175;SHT30;59417;44.788;10.334;2022-07-04T03:23:21;27.14;50.65
28175;SHT30;59417;44.788;10.334;2022-07-04T03:25:47;27.21;51.01
28175;SHT30;59417;44.788;10.334;2022-07-04T03:28:13;27.29;51.30
28175;SHT30;59417;44.788;10.334;2022-07-04T03:30:38;27.21;52.05
28175;SHT30;59417;44.788;10.334;2022-07-04T03:33:04;27.16;51.57
28175;SHT30;59417;44.788;10.334;2022-07-04T03:35:30;27.16;50.88
28175;SHT30;59417;44.788;10.334;2022-07-04T03:37:56;27.10;49.88
28175;SHT30;59417;44.788;10.334;2022-07-04T03:40:21;27.12;50.90
28175;SHT30;59417;44.788;10.334;2022-07-04T03:42:48;27.02;51.04
28175;SHT30;59417;44.788;10.334;2022-07-04T03:45:14;26.91;51.07
28175;SHT30;59417;44.788;10.334;2022-07-04T03:47:39;26.80;51.82
28175;SHT30;59417;44.788;10.334;2022-07-04T03:50:05;26.86;52.04
28175;SHT30;59417;44.788;10.334;2022-07-04T03:52:31;26.94;51.67
28175;SHT30;59417;44.788;10.334;2022-07-04T03:54:57;27.00;51.18
28175;SHT30;59417;44.788;10.334;2022-07-04T03:57:23;27.04;51.44
28175;SHT30;59417;44.788;10.334;2022-07-04T03:59:49;26.98;51.70
28175;SHT30;59417;44.788;10.334;2022-07-04T04:02:14;26.97;52.54
28175;SHT30;59417;44.788;10.334;2022-07-04T04:04:40;26.86;52.76
28175;SHT30;59417;44.788;10.334;2022-07-04T04:07:25;26.76;52.65
28175;SHT30;59417;44.788;10.334;2022-07-04T04:09:51;26.73;52.51
28175;SHT30;59417;44.788;10.334;2022-07-04T04:12:16;26.68;53.25
28175;SHT30;59417;44.788;10.334;2022-07-04T04:14:42;26.71;53.55
28175;SHT30;59417;44.788;10.334;2022-07-04T04:17:08;26.60;53.17
28175;SHT30;59417;44.788;10.334;2022-07-04T04:19:34;26.60;53.62
28175;SHT30;59417;44.788;10.334;2022-07-04T04:21:59;26.63;54.15
28175;SHT30;59417;44.788;10.334;2022-07-04T04:24:25;26.51;54.06
28175;SHT30;59417;44.788;10.334;2022-07-04T04:26:51;26.51;53.98
28175;SHT30;59417;44.788;10.334;2022-07-04T04:29:16;26.63;54.60
28175;SHT30;59417;44.788;10.334;2022-07-04T04:31:42;26.71;53.13
28175;SHT30;59417;44.788;10.334;2022-07-04T04:34:10;26.76;52.57
28175;SHT30;59417;44.788;10.334;2022-07-04T04:36:36;26.87;52.50
28175;SHT30;59417;44.788;10.334;2022-07-04T04:39:02;26.91;53.17
28175;SHT30;59417;44.788;10.334;2022-07-04T04:41:27;26.92;51.78
28175;SHT30;59417;44.788;10.334;2022-07-04T04:43:53;26.98;53.27
28175;SHT30;59417;44.788;10.334;2022-07-04T04:46:20;27.02;53.56
28175;SHT30;59417;44.788;10.334;2022-07-04T04:48:46;27.02;53.47
28175;SHT30;59417;44.788;10.334;2022-07-04T04:51:11;27.02;54.04
28175;SHT30;59417;44.788;10.334;2022-07-04T04:53:37;26.98;54.53
28175;SHT30;59417;44.788;10.334;2022-07-04T04:56:03;26.90;54.04
28175;SHT30;59417;44.788;10.334;2022-07-04T04:58:28;26.94;53.28
28175;SHT30;59417;44.788;10.334;2022-07-04T05:00:54;26.87;53.18
28175;SHT30;59417;44.788;10.334;2022-07-04T05:03:20;26.90;52.05
28175;SHT30;59417;44.788;10.334;2022-07-04T05:05:45;26.90;52.42
28175;SHT30;59417;44.788;10.334;2022-07-04T05:08:12;26.94;53.01
28175;SHT30;59417;44.788;10.334;2022-07-04T05:10:42;27.01;52.58
28175;SHT30;59417;44.788;10.334;2022-07-04T05:13:07;27.08;51.59
28175;SHT30;59417;44.788;10.334;2022-07-04T05:15:33;27.08;52.90
28175;SHT30;59417;44.788;10.334;2022-07-04T05:17:59;27.15;52.20
28175;SHT30;59417;44.788;10.334;2022-07-04T05:20:24;27.15;50.84
28175;SHT30;59417;44.788;10.334;2022-07-04T05:22:50;27.16;48.22
28175;SHT30;59417;44.788;10.334;2022-07-04T05:25:16;27.16;49.02
28175;SHT30;59417;44.788;10.334;2022-07-04T05:27:42;27.16;47.20
28175;SHT30;59417;44.788;10.334;2022-07-04T05:30:08;27.18;46.84
28175;SHT30;59417;44.788;10.334;2022-07-04T05:32:34;27.21;46.48
28175;SHT30;59417;44.788;10.334;2022-07-04T05:35:02;27.21;46.67
28175;SHT30;59417;44.788;10.334;2022-07-04T05:37:28;27.16;47.65
28175;SHT30;59417;44.788;10.334;2022-07-04T05:39:54;27.19;48.52
28175;SHT30;59417;44.788;10.334;2022-07-04T05:42:19;27.24;47.03
28175;SHT30;59417;44.788;10.334;2022-07-04T05:44:45;27.29;47.49
28175;SHT30;59417;44.788;10.334;2022-07-04T05:47:10;27.31;46.85
28175;SHT30;59417;44.788;10.334;2022-07-04T05:49:36;27.29;47.58
28175;SHT30;59417;44.788;10.334;2022-07-04T05:52:02;27.29;46.71
28175;SHT30;59417;44.788;10.334;2022-07-04T05:54:28;27.32;48.02
28175;SHT30;59417;44.788;10.334;2022-07-04T05:56:53;27.29;48.01
28175;SHT30;59417;44.788;10.334;2022-07-04T05:59:19;27.35;46.13
28175;SHT30;59417;44.788;10.334;2022-07-04T06:01:45;27.37;46.09
28175;SHT30;59417;44.788;10.334;2022-07-04T06:04:10;27.44;47.35
28175;SHT30;59417;44.788;10.334;2022-07-04T06:06:36;27.41;46.94
28175;SHT30;59417;44.788;10.334;2022-07-04T06:09:02;27.48;46.69
28175;SHT30;59417;44.788;10.334;2022-07-04T06:11:29;27.53;47.55
28175;SHT30;59417;44.788;10.334;2022-07-04T06:13:55;27.55;47.30
28175;SHT30;59417;44.788;10.334;2022-07-04T06:16:21;27.53;46.95
28175;SHT30;59417;44.788;10.334;2022-07-04T06:18:46;27.52;47.82
28175;SHT30;59417;44.788;10.334;2022-07-04T06:21:12;27.59;47.83
28175;SHT30;59417;44.788;10.334;2022-07-04T06:23:38;27.66;48.36
28175;SHT30;59417;44.788;10.334;2022-07-04T06:26:04;27.75;48.48
28175;SHT30;59417;44.788;10.334;2022-07-04T06:28:29;27.77;49.43
28175;SHT30;59417;44.788;10.334;2022-07-04T06:30:56;27.82;49.52
28175;SHT30;59417;44.788;10.334;2022-07-04T06:33:21;27.76;50.65
28175;SHT30;59417;44.788;10.334;2022-07-04T06:35:47;27.86;50.78
28175;SHT30;59417;44.788;10.334;2022-07-04T06:38:22;27.85;50.77
28175;SHT30;59417;44.788;10.334;2022-07-04T06:40:50;27.75;51.02
28175;SHT30;59417;44.788;10.334;2022-07-04T06:43:16;27.82;50.62
28175;SHT30;59417;44.788;10.334;2022-07-04T06:45:42;27.80;51.27
28175;SHT30;59417;44.788;10.334;2022-07-04T06:48:08;27.93;50.72
28175;SHT30;59417;44.788;10.334;2022-07-04T06:50:34;27.92;51.33
28175;SHT30;59417;44.788;10.334;2022-07-04T06:53:04;27.89;51.91
28175;SHT30;59417;44.788;10.334;2022-07-04T06:55:31;27.99;52.42
28175;SHT30;59417;44.788;10.334;2022-07-04T06:57:59;27.92;53.12
28175;SHT30;59417;44.788;10.334;2022-07-04T07:00:25;27.90;52.72
28175;SHT30;59417;44.788;10.334;2022-07-04T07:02:51;27.97;52.93
28175;SHT30;59417;44.788;10.334;2022-07-04T07:05:16;27.94;52.62
28175;SHT30;59417;44.788;10.334;2022-07-04T07:07:42;27.94;53.21
28175;SHT30;59417;44.788;10.334;2022-07-04T07:10:08;27.97;53.72
28175;SHT30;59417;44.788;10.334;2022-07-04T07:12:34;28.05;53.29
28175;SHT30;59417;44.788;10.334;2022-07-04T07:15:00;28.10;53.71
28175;SHT30;59417;44.788;10.334;2022-07-04T07:17:27;28.24;52.91
28175;SHT30;59417;44.788;10.334;2022-07-04T07:19:53;28.21;53.28
28175;SHT30;59417;44.788;10.334;2022-07-04T07:22:19;28.37;53.67
28175;SHT30;59417;44.788;10.334;2022-07-04T07:24:45;28.45;52.79
28175;SHT30;59417;44.788;10.334;2022-07-04T07:27:11;28.58;54.14
28175;SHT30;59417;44.788;10.334;2022-07-04T07:29:37;28.55;53.24
28175;SHT30;59417;44.788;10.334;2022-07-04T07:32:04;28.65;53.14
28175;SHT30;59417;44.788;10.334;2022-07-04T07:34:30;28.64;52.97
28175;SHT30;59417;44.788;10.334;2022-07-04T07:36:56;28.75;51.40
28175;SHT30;59417;44.788;10.334;2022-07-04T07:39:21;28.74;51.83
28175;SHT30;59417;44.788;10.334;2022-07-04T07:41:47;28.87;52.42
28175;SHT30;59417;44.788;10.334;2022-07-04T07:44:13;28.94;51.62
28175;SHT30;59417;44.788;10.334;2022-07-04T07:46:39;29.06;50.22
28175;SHT30;59417;44.788;10.334;2022-07-04T07:49:05;29.05;50.16
28175;SHT30;59417;44.788;10.334;2022-07-04T07:51:31;29.13;51.38
28175;SHT30;59417;44.788;10.334;2022-07-04T07:53:57;29.00;49.94
28175;SHT30;59417;44.788;10.334;2022-07-04T07:56:23;28.95;50.13
28175;SHT30;59417;44.788;10.334;2022-07-04T07:58:49;28.89;50.16
28175;SHT30;59417;44.788;10.334;2022-07-04T08:01:15;28.92;50.01
28175;SHT30;59417;44.788;10.334;2022-07-04T08:03:41;28.94;49.66
28175;SHT30;59417;44.788;10.334;2022-07-04T08:06:25;29.02;50.46
28175;SHT30;59417;44.788;10.334;2022-07-04T08:08:51;29.06;49.27
28175;SHT30;59417;44.788;10.334;2022-07-04T08:11:17;29.16;49.40
28175;SHT30;59417;44.788;10.334;2022-07-04T08:13:43;29.19;50.25
28175;SHT30;59417;44.788;10.334;2022-07-04T08:16:08;29.39;50.49
28175;SHT30;59417;44.788;10.334;2022-07-04T08:18:34;29.53;49.65
28175;SHT30;59417;44.788;10.334;2022-07-04T08:21:00;29.57;49.27
28175;SHT30;59417;44.788;10.334;2022-07-04T08:23:27;29.63;49.73
28175;SHT30;59417;44.788;10.334;2022-07-04T08:25:53;29.57;49.09
28175;SHT30;59417;44.788;10.334;2022-07-04T08:28:18;29.60;49.35
28175;SHT30;59417;44.788;10.334;2022-07-04T08:30:44;29.70;49.86
28175;SHT30;59417;44.788;10.334;2022-07-04T08:33:10;29.91;49.06
28175;SHT30;59417;44.788;10.334;2022-07-04T08:35:35;29.89;48.78
28175;SHT30;59417;44.788;10.334;2022-07-04T08:38:01;29.83;48.91
28175;SHT30;59417;44.788;10.334;2022-07-04T08:40:28;29.81;50.30
28175;SHT30;59417;44.788;10.334;2022-07-04T08:42:55;29.66;49.02
28175;SHT30;59417;44.788;10.334;2022-07-04T08:45:27;29.64;50.40
28175;SHT30;59417;44.788;10.334;2022-07-04T08:48:04;29.60;50.09
28175;SHT30;59417;44.788;10.334;2022-07-04T08:51:25;29.49;50.01
28175;SHT30;59417;44.788;10.334;2022-07-04T08:53:27;29.46;50.80
28175;SHT30;59417;44.788;10.334;2022-07-04T08:55:53;29.43;51.10
28175;SHT30;59417;44.788;10.334;2022-07-04T08:58:38;29.45;52.06
28175;SHT30;59417;44.788;10.334;2022-07-04T09:01:07;29.47;51.86
28175;SHT30;59417;44.788;10.334;2022-07-04T09:03:34;29.43;52.17
28175;SHT30;59417;44.788;10.334;2022-07-04T09:06:00;29.45;52.56
28175;SHT30;59417;44.788;10.334;2022-07-04T09:08:29;29.46;52.22
28175;SHT30;59417;44.788;10.334;2022-07-04T09:10:56;29.50;52.61
28175;SHT30;59417;44.788;10.334;2022-07-04T09:13:26;29.42;53.30
28175;SHT30;59417;44.788;10.334;2022-07-04T09:15:52;29.45;53.37
28175;SHT30;59417;44.788;10.334;2022-07-04T09:18:32;29.35;53.32
28175;SHT30;59417;44.788;10.334;2022-07-04T09:21:09;29.40;53.54
28175;SHT30;59417;44.788;10.334;2022-07-04T09:23:39;29.45;52.67
28175;SHT30;59417;44.788;10.334;2022-07-04T09:26:25;29.50;53.70
28175;SHT30;59417;44.788;10.334;2022-07-04T09:28:55;29.56;52.62
28175;SHT30;59417;44.788;10.334;2022-07-04T09:31:26;29.51;52.27
28175;SHT30;59417;44.788;10.334;2022-07-04T09:33:57;29.51;52.33
28175;SHT30;59417;44.788;10.334;2022-07-04T09:36:25;29.46;53.02
28175;SHT30;59417;44.788;10.334;2022-07-04T09:39:13;29.56;53.56
28175;SHT30;59417;44.788;10.334;2022-07-04T09:44:14;29.59;53.44
28175;SHT30;59417;44.788;10.334;2022-07-04T09:46:40;29.66;53.44
28175;SHT30;59417;44.788;10.334;2022-07-04T09:49:06;29.77;52.05
28175;SHT30;59417;44.788;10.334;2022-07-04T09:51:37;29.69;52.22
28175;SHT30;59417;44.788;10.334;2022-07-04T09:56:51;29.71;52.79
28175;SHT30;59417;44.788;10.334;2022-07-04T09:59:18;29.76;53.13
28175;SHT30;59417;44.788;10.334;2022-07-04T10:01:43;29.76;52.80
28175;SHT30;59417;44.788;10.334;2022-07-04T10:04:09;29.81;53.57
28175;SHT30;59417;44.788;10.334;2022-07-04T10:06:38;29.80;53.73
28175;SHT30;59417;44.788;10.334;2022-07-04T10:11:38;30.10;53.57
28175;SHT30;59417;44.788;10.334;2022-07-04T10:14:09;30.01;52.72
28175;SHT30;59417;44.788;10.334;2022-07-04T10:16:36;29.96;53.90
28175;SHT30;59417;44.788;10.334;2022-07-04T10:19:02;30.08;53.35
28175;SHT30;59417;44.788;10.334;2022-07-04T10:21:29;30.04;53.35
28175;SHT30;59417;44.788;10.334;2022-07-04T10:23:55;30.01;53.33
28175;SHT30;59417;44.788;10.334;2022-07-04T10:26:21;30.07;51.65
28175;SHT30;59417;44.788;10.334;2022-07-04T10:28:51;30.03;53.36
28175;SHT30;59417;44.788;10.334;2022-07-04T10:31:21;30.10;53.21
28175;SHT30;59417;44.788;10.334;2022-07-04T10:33:48;29.97;52.22
28175;SHT30;59417;44.788;10.334;2022-07-04T10:36:19;30.01;52.58
28175;SHT30;59417;44.788;10.334;2022-07-04T10:39:02;30.11;51.89
28175;SHT30;59417;44.788;10.334;2022-07-04T10:41:29;30.28;51.55
28175;SHT30;59417;44.788;10.334;2022-07-04T10:44:03;30.44;51.40
28175;SHT30;59417;44.788;10.334;2022-07-04T10:46:33;30.52;49.68
28175;SHT30;59417;44.788;10.334;2022-07-04T10:59:13;30.95;48.81
28175;SHT30;59417;44.788;10.334;2022-07-04T11:01:45;31.12;48.76
28175;SHT30;59417;44.788;10.334;2022-07-04T11:04:10;31.13;48.64
28175;SHT30;59417;44.788;10.334;2022-07-04T11:09:21;31.44;50.47
28175;SHT30;59417;44.788;10.334;2022-07-04T11:12:00;31.70;51.14
28175;SHT30;59417;44.788;10.334;2022-07-04T11:14:46;31.87;47.50
28175;SHT30;59417;44.788;10.334;2022-07-04T11:17:19;32.04;46.91
28175;SHT30;59417;44.788;10.334;2022-07-04T11:19:45;32.04;46.63
28175;SHT30;59417;44.788;10.334;2022-07-04T11:22:11;31.94;46.66
28175;SHT30;59417;44.788;10.334;2022-07-04T11:24:38;31.87;48.22
28175;SHT30;59417;44.788;10.334;2022-07-04T11:27:07;31.98;46.81
28175;SHT30;59417;44.788;10.334;2022-07-04T11:29:33;32.04;47.52
28175;SHT30;59417;44.788;10.334;2022-07-04T11:32:00;31.99;46.08
28175;SHT30;59417;44.788;10.334;2022-07-04T11:34:31;32.05;45.91
28175;SHT30;59417;44.788;10.334;2022-07-04T11:36:57;32.21;46.44
28175;SHT30;59417;44.788;10.334;2022-07-04T11:39:23;32.38;46.13
28175;SHT30;59417;44.788;10.334;2022-07-04T11:41:52;32.52;46.28
28175;SHT30;59417;44.788;10.334;2022-07-04T11:44:39;32.72;46.48
28175;SHT30;59417;44.788;10.334;2022-07-04T11:47:42;32.79;44.36
28175;SHT30;59417;44.788;10.334;2022-07-04T11:50:15;32.78;45.21
28175;SHT30;59417;44.788;10.334;2022-07-04T11:52:48;32.80;45.59
28175;SHT30;59417;44.788;10.334;2022-07-04T11:55:17;32.96;44.97
28175;SHT30;59417;44.788;10.334;2022-07-04T11:57:50;33.03;44.22
28175;SHT30;59417;44.788;10.334;2022-07-04T12:00:19;32.91;45.59
28175;SHT30;59417;44.788;10.334;2022-07-04T12:02:47;33.02;46.31
28175;SHT30;59417;44.788;10.334;2022-07-04T12:05:14;33.27;44.31
28175;SHT30;59417;44.788;10.334;2022-07-04T12:07:46;33.46;44.36
28175;SHT30;59417;44.788;10.334;2022-07-04T12:10:23;33.60;44.34
28175;SHT30;59417;44.788;10.334;2022-07-04T12:12:56;33.75;43.74
28175;SHT30;59417;44.788;10.334;2022-07-04T12:15:24;33.84;43.47
28175;SHT30;59417;44.788;10.334;2022-07-04T12:17:54;33.95;43.15
28175;SHT30;59417;44.788;10.334;2022-07-04T12:20:24;34.02;42.95
28175;SHT30;59417;44.788;10.334;2022-07-04T12:22:55;34.16;42.84
28175;SHT30;59417;44.788;10.334;2022-07-04T12:25:30;34.28;42.82
28175;SHT30;59417;44.788;10.334;2022-07-04T12:28:07;34.28;41.81
28175;SHT30;59417;44.788;10.334;2022-07-04T12:30:36;34.32;42.22
28175;SHT30;59417;44.788;10.334;2022-07-04T12:33:04;34.36;41.60
28175;SHT30;59417;44.788;10.334;2022-07-04T12:35:41;34.45;42.32
28175;SHT30;59417;44.788;10.334;2022-07-04T12:38:09;34.48;39.49
28175;SHT30;59417;44.788;10.334;2022-07-04T12:40:36;34.55;42.23
28175;SHT30;59417;44.788;10.334;2022-07-04T12:43:02;34.56;41.97
28175;SHT30;59417;44.788;10.334;2022-07-04T12:45:42;34.64;40.36
28175;SHT30;59417;44.788;10.334;2022-07-04T12:48:26;34.56;40.36
28175;SHT30;59417;44.788;10.334;2022-07-04T12:50:52;34.63;40.97
28175;SHT30;59417;44.788;10.334;2022-07-04T12:53:19;34.83;40.88
28175;SHT30;59417;44.788;10.334;2022-07-04T12:55:46;35.04;40.77
28175;SHT30;59417;44.788;10.334;2022-07-04T12:58:12;35.20;39.79
28175;SHT30;59417;44.788;10.334;2022-07-04T13:00:39;35.27;40.49
28175;SHT30;59417;44.788;10.334;2022-07-04T13:03:05;35.40;40.68
28175;SHT30;59417;44.788;10.334;2022-07-04T13:05:34;35.45;39.66
28175;SHT30;59417;44.788;10.334;2022-07-04T13:08:00;35.55;39.43
28175;SHT30;59417;44.788;10.334;2022-07-04T13:10:26;35.45;37.69
28175;SHT30;59417;44.788;10.334;2022-07-04T13:12:52;35.41;38.61
28175;SHT30;59417;44.788;10.334;2022-07-04T13:15:18;35.40;39.24
28175;SHT30;59417;44.788;10.334;2022-07-04T13:17:44;35.51;39.60
28175;SHT30;59417;44.788;10.334;2022-07-04T13:20:10;35.53;40.07
28175;SHT30;59417;44.788;10.334;2022-07-04T13:22:38;35.59;40.40
28175;SHT30;59417;44.788;10.334;2022-07-04T13:25:04;35.58;40.08
28175;SHT30;59417;44.788;10.334;2022-07-04T13:27:31;35.55;39.74
28175;SHT30;59417;44.788;10.334;2022-07-04T13:29:57;35.61;41.28
28175;SHT30;59417;44.788;10.334;2022-07-04T13:32:23;35.64;39.57
28175;SHT30;59417;44.788;10.334;2022-07-04T13:34:48;35.54;40.03
28175;SHT30;59417;44.788;10.334;2022-07-04T13:37:16;35.54;41.09
28175;SHT30;59417;44.788;10.334;2022-07-04T13:39:43;35.48;39.55
28175;SHT30;59417;44.788;10.334;2022-07-04T13:42:08;35.55;41.30
28175;SHT30;59417;44.788;10.334;2022-07-04T13:44:34;35.54;39.95
28175;SHT30;59417;44.788;10.334;2022-07-04T13:47:00;35.51;40.74
28175;SHT30;59417;44.788;10.334;2022-07-04T13:49:26;35.51;39.49
28175;SHT30;59417;44.788;10.334;2022-07-04T13:51:52;35.44;38.93
28175;SHT30;59417;44.788;10.334;2022-07-04T13:54:18;35.31;39.25
28175;SHT30;59417;44.788;10.334;2022-07-04T13:56:45;35.17;39.17
28175;SHT30;59417;44.788;10.334;2022-07-04T13:59:11;35.30;39.65
28175;SHT30;59417;44.788;10.334;2022-07-04T14:01:37;35.41;39.76
28175;SHT30;59417;44.788;10.334;2022-07-04T14:04:02;35.33;38.63
28175;SHT30;59417;44.788;10.334;2022-07-04T14:06:28;35.26;39.69
28175;SHT30;59417;44.788;10.334;2022-07-04T14:08:54;35.26;40.02
28175;SHT30;59417;44.788;10.334;2022-07-04T14:11:20;35.23;40.65
28175;SHT30;59417;44.788;10.334;2022-07-04T14:13:45;35.23;40.44
28175;SHT30;59417;44.788;10.334;2022-07-04T14:16:11;35.30;40.45
28175;SHT30;59417;44.788;10.334;2022-07-04T14:18:37;35.29;39.87
28175;SHT30;59417;44.788;10.334;2022-07-04T14:21:02;35.31;39.77
28175;SHT30;59417;44.788;10.334;2022-07-04T14:23:28;35.27;39.61
28175;SHT30;59417;44.788;10.334;2022-07-04T14:26:10;35.18;39.96
28175;SHT30;59417;44.788;10.334;2022-07-04T14:28:38;35.18;40.90
28175;SHT30;59417;44.788;10.334;2022-07-04T14:31:03;35.20;40.92
28175;SHT30;59417;44.788;10.334;2022-07-04T14:33:29;35.31;40.01
28175;SHT30;59417;44.788;10.334;2022-07-04T14:35:55;35.35;40.84
28175;SHT30;59417;44.788;10.334;2022-07-04T14:38:21;35.31;40.89
28175;SHT30;59417;44.788;10.334;2022-07-04T14:40:47;35.33;39.43
28175;SHT30;59417;44.788;10.334;2022-07-04T14:43:15;35.33;39.93
28175;SHT30;59417;44.788;10.334;2022-07-04T14:45:45;35.30;39.48
28175;SHT30;59417;44.788;10.334;2022-07-04T14:48:13;35.21;38.96
28175;SHT30;59417;44.788;10.334;2022-07-04T14:50:39;35.23;40.16
28175;SHT30;59417;44.788;10.334;2022-07-04T14:53:04;35.27;40.57
28175;SHT30;59417;44.788;10.334;2022-07-04T14:55:30;35.31;40.46
28175;SHT30;59417;44.788;10.334;2022-07-04T14:57:56;35.33;40.29
28175;SHT30;59417;44.788;10.334;2022-07-04T15:00:21;35.29;40.48
28175;SHT30;59417;44.788;10.334;2022-07-04T15:02:47;35.27;40.45
28175;SHT30;59417;44.788;10.334;2022-07-04T15:05:14;35.29;40.24
28175;SHT30;59417;44.788;10.334;2022-07-04T15:07:39;35.24;40.25
28175;SHT30;59417;44.788;10.334;2022-07-04T15:10:06;35.21;38.69
28175;SHT30;59417;44.788;10.334;2022-07-04T15:12:34;35.20;39.23
28175;SHT30;59417;44.788;10.334;2022-07-04T15:15:00;35.40;38.80
28175;SHT30;59417;44.788;10.334;2022-07-04T15:17:27;35.44;39.27
28175;SHT30;59417;44.788;10.334;2022-07-04T15:19:53;35.38;40.25
28175;SHT30;59417;44.788;10.334;2022-07-04T15:22:37;35.31;39.92
28175;SHT30;59417;44.788;10.334;2022-07-04T15:25:21;35.45;38.02
28175;SHT30;59417;44.788;10.334;2022-07-04T15:27:47;35.34;38.35
28175;SHT30;59417;44.788;10.334;2022-07-04T15:30:13;35.34;38.90
28175;SHT30;59417;44.788;10.334;2022-07-04T15:32:38;34.94;38.39
28175;SHT30;59417;44.788;10.334;2022-07-04T15:35:04;34.64;39.16
28175;SHT30;59417;44.788;10.334;2022-07-04T15:37:30;34.28;39.68